sensor_id;sensor_type;location;lat;lon;timestamp;P1;durP1;ratioP1;P2;durP2;ratioP2
22632;SDS011;11483;55.828;37.488;2022-09-20T00:01:05;4.72;;;1.10;;
22632;SDS011;11483;55.828;37.488;2022-09-20T00:03:37;0.80;;;0.80;;
22632;SDS011;11483;55.828;37.488;2022-09-20T00:06:05;1.42;;;0.90;;
22632;SDS011;11483;55.828;37.488;2022-09-20T00:08:32;0.93;;;0.88;;
22632;SDS011;11483;55.828;37.488;2022-09-20T00:10:59;1.77;;;1.08;;
22632;SDS011;11483;55.828;37.488;2022-09-20T00:13:31;0.88;;;0.88;;
22632;SDS011;11483;55.828;37.488;2022-09-20T00:15:57;0.80;;;0.80;;
22632;SDS011;11483;55.828;37.488;2022-09-20T00:18:23;1.98;;;1.15;;
22632;SDS011;11483;55.828;37.488;2022-09-20T00:20:50;1.45;;;1.00;;
22632;SDS011;11483;55.828;37.488;2022-09-20T00:23:17;1.38;;;1.10;;
22632;SDS011;11483;55.828;37.488;2022-09-20T00:25:44;4.68;;;0.90;;
22632;SDS011;11483;55.828;37.488;2022-09-20T00:28:10;0.80;;;0.80;;
22632;SDS011;11483;55.828;37.488;2022-09-20T00:30:36;3.28;;;1.13;;
22632;SDS011;11483;55.828;37.488;2022-09-20T00:33:03;1.55;;;0.80;;
22632;SDS011;11483;55.828;37.488;2022-09-20T00:35:30;1.15;;;1.05;;
22632;SDS011;11483;55.828;37.488;2022-09-20T00:37:55;1.63;;;1.20;;
22632;SDS011;11483;55.828;37.488;2022-09-20T00:40:22;1.35;;;1.10;;
22632;SDS011;11483;55.828;37.488;2022-09-20T00:50:28;2.53;;;1.15;;
22632;SDS011;11483;55.828;37.488;2022-09-20T00:55:49;4.28;;;1.15;;
22632;SDS011;11483;55.828;37.488;2022-09-20T00:58:19;1.30;;;1.00;;
22632;SDS011;11483;55.828;37.488;2022-09-20T01:00:48;1.08;;;0.98;;
22632;SDS011;11483;55.828;37.488;2022-09-20T01:03:16;1.45;;;0.95;;
22632;SDS011;11483;55.828;37.488;2022-09-20T01:05:48;1.05;;;1.00;;
22632;SDS011;11483;55.828;37.488;2022-09-20T01:08:16;2.20;;;1.10;;
22632;SDS011;11483;55.828;37.488;2022-09-20T01:10:45;1.20;;;1.00;;
22632;SDS011;11483;55.828;37.488;2022-09-20T01:13:11;1.77;;;0.90;;
22632;SDS011;11483;55.828;37.488;2022-09-20T01:15:37;1.05;;;0.95;;
22632;SDS011;11483;55.828;37.488;2022-09-20T01:18:06;1.83;;;0.98;;
22632;SDS011;11483;55.828;37.488;2022-09-20T01:20:34;3.85;;;0.90;;
22632;SDS011;11483;55.828;37.488;2022-09-20T01:28:34;0.95;;;0.93;;
22632;SDS011;11483;55.828;37.488;2022-09-20T01:31:05;1.02;;;0.95;;
22632;SDS011;11483;55.828;37.488;2022-09-20T01:33:43;1.05;;;1.00;;
22632;SDS011;11483;55.828;37.488;2022-09-20T01:36:13;2.47;;;1.17;;
22632;SDS011;11483;55.828;37.488;2022-09-20T01:41:53;1.73;;;1.10;;
22632;SDS011;11483;55.828;37.488;2022-09-20T01:52:46;1.45;;;0.98;;
22632;SDS011;11483;55.828;37.488;2022-09-20T01:55:35;1.38;;;1.10;;
22632;SDS011;11483;55.828;37.488;2022-09-20T02:06:11;0.90;;;0.90;;
22632;SDS011;11483;55.828;37.488;2022-09-20T02:15:00;1.98;;;1.20;;
22632;SDS011;11483;55.828;37.488;2022-09-20T02:17:47;5.03;;;1.20;;
22632;SDS011;11483;55.828;37.488;2022-09-20T02:21:03;1.15;;;1.00;;
22632;SDS011;11483;55.828;37.488;2022-09-20T02:23:33;1.52;;;1.08;;
22632;SDS011;11483;55.828;37.488;2022-09-20T02:26:08;4.82;;;1.00;;
22632;SDS011;11483;55.828;37.488;2022-09-20T02:34:10;1.20;;;1.00;;
22632;SDS011;11483;55.828;37.488;2022-09-20T02:45:05;4.65;;;0.90;;
22632;SDS011;11483;55.828;37.488;2022-09-20T02:47:52;7.30;;;1.00;;
22632;SDS011;11483;55.828;37.488;2022-09-20T02:50:30;3.53;;;1.25;;
22632;SDS011;11483;55.828;37.488;2022-09-20T02:55:37;2.58;;;1.23;;
22632;SDS011;11483;55.828;37.488;2022-09-20T02:58:23;0.90;;;0.90;;
22632;SDS011;11483;55.828;37.488;2022-09-20T03:10:00;2.22;;;0.90;;
22632;SDS011;11483;55.828;37.488;2022-09-20T03:15:44;0.90;;;0.90;;
22632;SDS011;11483;55.828;37.488;2022-09-20T03:18:53;2.65;;;1.00;;
22632;SDS011;11483;55.828;37.488;2022-09-20T03:24:42;0.80;;;0.80;;
22632;SDS011;11483;55.828;37.488;2022-09-20T03:27:31;1.52;;;1.05;;
22632;SDS011;11483;55.828;37.488;2022-09-20T03:38:28;2.10;;;1.20;;
22632;SDS011;11483;55.828;37.488;2022-09-20T03:46:27;1.83;;;1.10;;
22632;SDS011;11483;55.828;37.488;2022-09-20T04:14:08;4.15;;;1.10;;
22632;SDS011;11483;55.828;37.488;2022-09-20T04:22:38;1.20;;;1.13;;
22632;SDS011;11483;55.828;37.488;2022-09-20T04:25:14;2.35;;;1.05;;
22632;SDS011;11483;55.828;37.488;2022-09-20T04:27:46;1.30;;;1.20;;
22632;SDS011;11483;55.828;37.488;2022-09-20T04:30:19;2.83;;;1.58;;
22632;SDS011;11483;55.828;37.488;2022-09-20T04:33:01;3.35;;;1.20;;
22632;SDS011;11483;55.828;37.488;2022-09-20T04:44:43;1.20;;;1.10;;
22632;SDS011;11483;55.828;37.488;2022-09-20T04:53:36;4.00;;;1.02;;
22632;SDS011;11483;55.828;37.488;2022-09-20T04:59:07;3.85;;;1.38;;
22632;SDS011;11483;55.828;37.488;2022-09-20T05:16:17;3.72;;;1.20;;
22632;SDS011;11483;55.828;37.488;2022-09-20T05:21:51;2.33;;;1.25;;
22632;SDS011;11483;55.828;37.488;2022-09-20T05:33:56;2.50;;;1.20;;
22632;SDS011;11483;55.828;37.488;2022-09-20T05:36:51;3.10;;;1.25;;
22632;SDS011;11483;55.828;37.488;2022-09-20T05:39:32;6.57;;;1.30;;
22632;SDS011;11483;55.828;37.488;2022-09-20T05:48:12;1.23;;;1.13;;
22632;SDS011;11483;55.828;37.488;2022-09-20T05:50:51;3.00;;;1.23;;
22632;SDS011;11483;55.828;37.488;2022-09-20T05:56:15;1.63;;;1.20;;
22632;SDS011;11483;55.828;37.488;2022-09-20T05:59:11;4.35;;;1.45;;
22632;SDS011;11483;55.828;37.488;2022-09-20T06:01:41;5.30;;;1.15;;
22632;SDS011;11483;55.828;37.488;2022-09-20T06:30:49;6.18;;;1.23;;
22632;SDS011;11483;55.828;37.488;2022-09-20T06:33:18;3.35;;;1.25;;
22632;SDS011;11483;55.828;37.488;2022-09-20T06:36:03;2.30;;;1.10;;
22632;SDS011;11483;55.828;37.488;2022-09-20T06:39:18;1.73;;;1.13;;
22632;SDS011;11483;55.828;37.488;2022-09-20T06:42:09;3.85;;;1.23;;
22632;SDS011;11483;55.828;37.488;2022-09-20T06:44:36;3.55;;;1.10;;
22632;SDS011;11483;55.828;37.488;2022-09-20T07:06:59;3.10;;;1.55;;
22632;SDS011;11483;55.828;37.488;2022-09-20T07:09:26;1.35;;;1.08;;
22632;SDS011;11483;55.828;37.488;2022-09-20T07:11:53;1.48;;;1.10;;
22632;SDS011;11483;55.828;37.488;2022-09-20T07:14:21;1.23;;;1.02;;
22632;SDS011;11483;55.828;37.488;2022-09-20T07:16:47;2.10;;;1.25;;
22632;SDS011;11483;55.828;37.488;2022-09-20T07:19:13;1.23;;;1.10;;
22632;SDS011;11483;55.828;37.488;2022-09-20T07:21:42;3.10;;;1.40;;
22632;SDS011;11483;55.828;37.488;2022-09-20T07:24:08;2.13;;;1.27;;
22632;SDS011;11483;55.828;37.488;2022-09-20T07:26:34;1.27;;;0.88;;
22632;SDS011;11483;55.828;37.488;2022-09-20T07:29:01;6.30;;;1.25;;
22632;SDS011;11483;55.828;37.488;2022-09-20T07:31:27;1.25;;;1.02;;
22632;SDS011;11483;55.828;37.488;2022-09-20T07:33:54;1.90;;;1.45;;
22632;SDS011;11483;55.828;37.488;2022-09-20T07:36:20;3.53;;;1.30;;
22632;SDS011;11483;55.828;37.488;2022-09-20T07:38:47;5.50;;;1.27;;
22632;SDS011;11483;55.828;37.488;2022-09-20T07:41:16;4.32;;;2.40;;
22632;SDS011;11483;55.828;37.488;2022-09-20T07:43:47;5.78;;;2.05;;
22632;SDS011;11483;55.828;37.488;2022-09-20T07:46:15;1.25;;;1.15;;
22632;SDS011;11483;55.828;37.488;2022-09-20T07:48:41;2.35;;;1.13;;
22632;SDS011;11483;55.828;37.488;2022-09-20T07:51:09;3.53;;;1.20;;
22632;SDS011;11483;55.828;37.488;2022-09-20T07:53:37;2.38;;;1.15;;
22632;SDS011;11483;55.828;37.488;2022-09-20T07:58:40;6.07;;;1.58;;
22632;SDS011;11483;55.828;37.488;2022-09-20T08:01:08;2.75;;;1.00;;
22632;SDS011;11483;55.828;37.488;2022-09-20T08:03:37;2.35;;;1.20;;
22632;SDS011;11483;55.828;37.488;2022-09-20T08:06:04;1.33;;;0.95;;
22632;SDS011;11483;55.828;37.488;2022-09-20T08:08:33;1.23;;;1.02;;
22632;SDS011;11483;55.828;37.488;2022-09-20T08:11:10;4.38;;;1.45;;
22632;SDS011;11483;55.828;37.488;2022-09-20T08:13:48;1.13;;;1.00;;
22632;SDS011;11483;55.828;37.488;2022-09-20T08:16:15;2.88;;;1.25;;
22632;SDS011;11483;55.828;37.488;2022-09-20T08:58:12;0.70;;;0.70;;
22632;SDS011;11483;55.828;37.488;2022-09-20T09:00:38;1.50;;;1.10;;
22632;SDS011;11483;55.828;37.488;2022-09-20T10:22:47;4.68;;;1.02;;
22632;SDS011;11483;55.828;37.488;2022-09-20T10:25:26;1.02;;;1.00;;
22632;SDS011;11483;55.828;37.488;2022-09-20T10:36:36;1.30;;;0.98;;
22632;SDS011;11483;55.828;37.488;2022-09-20T10:48:27;0.80;;;0.80;;
22632;SDS011;11483;55.828;37.488;2022-09-20T10:51:06;5.65;;;0.90;;
22632;SDS011;11483;55.828;37.488;2022-09-20T10:58:57;1.35;;;0.90;;
22632;SDS011;11483;55.828;37.488;2022-09-20T11:07:17;1.92;;;1.10;;
22632;SDS011;11483;55.828;37.488;2022-09-20T11:10:10;5.47;;;1.30;;
22632;SDS011;11483;55.828;37.488;2022-09-20T11:12:47;1.02;;;0.98;;
22632;SDS011;11483;55.828;37.488;2022-09-20T11:15:55;2.58;;;1.10;;
22632;SDS011;11483;55.828;37.488;2022-09-20T11:18:21;1.83;;;1.30;;
22632;SDS011;11483;55.828;37.488;2022-09-20T11:27:03;2.28;;;1.20;;
22632;SDS011;11483;55.828;37.488;2022-09-20T11:32:49;1.52;;;1.02;;
22632;SDS011;11483;55.828;37.488;2022-09-20T11:38:11;5.63;;;1.10;;
22632;SDS011;11483;55.828;37.488;2022-09-20T11:40:56;1.98;;;1.10;;
22632;SDS011;11483;55.828;37.488;2022-09-20T11:43:29;1.90;;;1.25;;
22632;SDS011;11483;55.828;37.488;2022-09-20T11:45:57;6.38;;;1.33;;
22632;SDS011;11483;55.828;37.488;2022-09-20T11:48:38;4.43;;;1.20;;
22632;SDS011;11483;55.828;37.488;2022-09-20T11:56:36;7.28;;;2.45;;
22632;SDS011;11483;55.828;37.488;2022-09-20T11:59:04;3.42;;;1.33;;
22632;SDS011;11483;55.828;37.488;2022-09-20T12:01:36;4.88;;;1.30;;
22632;SDS011;11483;55.828;37.488;2022-09-20T12:26:55;4.63;;;1.45;;
22632;SDS011;11483;55.828;37.488;2022-09-20T12:31:59;2.92;;;1.58;;
22632;SDS011;11483;55.828;37.488;2022-09-20T12:34:31;2.92;;;1.58;;
22632;SDS011;11483;55.828;37.488;2022-09-20T12:39:25;2.17;;;1.40;;
22632;SDS011;11483;55.828;37.488;2022-09-20T12:44:37;2.25;;;1.70;;
22632;SDS011;11483;55.828;37.488;2022-09-20T12:47:18;4.15;;;1.90;;
22632;SDS011;11483;55.828;37.488;2022-09-20T12:49:53;1.85;;;1.55;;
22632;SDS011;11483;55.828;37.488;2022-09-20T12:52:53;4.78;;;1.95;;
22632;SDS011;11483;55.828;37.488;2022-09-20T13:00:48;4.70;;;2.10;;
22632;SDS011;11483;55.828;37.488;2022-09-20T13:03:25;2.97;;;2.25;;
22632;SDS011;11483;55.828;37.488;2022-09-20T13:21:29;4.75;;;2.00;;
22632;SDS011;11483;55.828;37.488;2022-09-20T13:23:57;2.45;;;1.70;;
22632;SDS011;11483;55.828;37.488;2022-09-20T13:26:25;3.65;;;2.35;;
22632;SDS011;11483;55.828;37.488;2022-09-20T13:28:57;5.03;;;2.28;;
22632;SDS011;11483;55.828;37.488;2022-09-20T13:31:26;4.10;;;2.20;;
22632;SDS011;11483;55.828;37.488;2022-09-20T13:33:54;3.47;;;2.65;;
22632;SDS011;11483;55.828;37.488;2022-09-20T13:36:37;4.28;;;2.10;;
22632;SDS011;11483;55.828;37.488;2022-09-20T13:39:03;5.05;;;2.45;;
22632;SDS011;11483;55.828;37.488;2022-09-20T13:41:31;8.80;;;2.60;;
22632;SDS011;11483;55.828;37.488;2022-09-20T13:43:59;3.40;;;2.30;;
22632;SDS011;11483;55.828;37.488;2022-09-20T13:46:32;2.63;;;1.70;;
22632;SDS011;11483;55.828;37.488;2022-09-20T14:01:52;3.17;;;1.60;;
22632;SDS011;11483;55.828;37.488;2022-09-20T14:11:52;3.30;;;1.73;;
22632;SDS011;11483;55.828;37.488;2022-09-20T14:14:20;4.50;;;1.55;;
22632;SDS011;11483;55.828;37.488;2022-09-20T14:19:14;1.95;;;1.48;;
22632;SDS011;11483;55.828;37.488;2022-09-20T14:21:42;3.05;;;1.80;;
22632;SDS011;11483;55.828;37.488;2022-09-20T14:27:04;3.90;;;1.90;;
22632;SDS011;11483;55.828;37.488;2022-09-20T14:29:47;2.85;;;1.70;;
22632;SDS011;11483;55.828;37.488;2022-09-20T14:37:24;5.80;;;2.03;;
22632;SDS011;11483;55.828;37.488;2022-09-20T14:40:15;5.88;;;2.20;;
22632;SDS011;11483;55.828;37.488;2022-09-20T14:42:49;5.97;;;2.50;;
22632;SDS011;11483;55.828;37.488;2022-09-20T14:47:56;2.50;;;1.80;;
22632;SDS011;11483;55.828;37.488;2022-09-20T14:50:33;3.30;;;2.00;;
22632;SDS011;11483;55.828;37.488;2022-09-20T15:05:23;10.98;;;2.42;;
22632;SDS011;11483;55.828;37.488;2022-09-20T15:07:51;2.38;;;1.70;;
22632;SDS011;11483;55.828;37.488;2022-09-20T15:10:19;4.15;;;2.05;;
22632;SDS011;11483;55.828;37.488;2022-09-20T15:12:46;3.05;;;2.00;;
22632;SDS011;11483;55.828;37.488;2022-09-20T15:15:13;2.60;;;1.90;;
22632;SDS011;11483;55.828;37.488;2022-09-20T15:17:41;5.15;;;1.70;;
22632;SDS011;11483;55.828;37.488;2022-09-20T15:20:11;4.43;;;2.00;;
22632;SDS011;11483;55.828;37.488;2022-09-20T15:22:40;7.78;;;2.70;;
22632;SDS011;11483;55.828;37.488;2022-09-20T15:25:07;4.40;;;2.35;;
22632;SDS011;11483;55.828;37.488;2022-09-20T15:27:37;4.15;;;2.25;;
22632;SDS011;11483;55.828;37.488;2022-09-20T15:47:05;5.35;;;2.45;;
22632;SDS011;11483;55.828;37.488;2022-09-20T15:49:31;10.75;;;4.78;;
22632;SDS011;11483;55.828;37.488;2022-09-20T15:51:57;4.95;;;2.25;;
22632;SDS011;11483;55.828;37.488;2022-09-20T15:54:23;5.03;;;2.05;;
22632;SDS011;11483;55.828;37.488;2022-09-20T15:56:50;3.13;;;2.08;;
22632;SDS011;11483;55.828;37.488;2022-09-20T15:59:17;9.32;;;2.50;;
22632;SDS011;11483;55.828;37.488;2022-09-20T16:01:47;4.35;;;1.88;;
22632;SDS011;11483;55.828;37.488;2022-09-20T16:04:17;4.47;;;2.40;;
22632;SDS011;11483;55.828;37.488;2022-09-20T16:06:44;10.02;;;2.22;;
22632;SDS011;11483;55.828;37.488;2022-09-20T16:09:12;7.38;;;2.80;;
22632;SDS011;11483;55.828;37.488;2022-09-20T16:11:38;4.70;;;2.55;;
22632;SDS011;11483;55.828;37.488;2022-09-20T16:14:04;11.82;;;2.60;;
22632;SDS011;11483;55.828;37.488;2022-09-20T16:16:31;4.60;;;2.40;;
22632;SDS011;11483;55.828;37.488;2022-09-20T16:18:58;7.75;;;2.83;;
22632;SDS011;11483;55.828;37.488;2022-09-20T16:21:47;7.93;;;2.90;;
22632;SDS011;11483;55.828;37.488;2022-09-20T16:24:17;8.68;;;2.80;;
22632;SDS011;11483;55.828;37.488;2022-09-20T16:26:43;7.32;;;2.55;;
22632;SDS011;11483;55.828;37.488;2022-09-20T16:29:10;6.65;;;2.67;;
22632;SDS011;11483;55.828;37.488;2022-09-20T16:31:40;5.20;;;2.75;;
22632;SDS011;11483;55.828;37.488;2022-09-20T16:34:18;16.58;;;8.52;;
22632;SDS011;11483;55.828;37.488;2022-09-20T16:36:51;8.57;;;3.55;;
22632;SDS011;11483;55.828;37.488;2022-09-20T16:39:20;10.15;;;4.88;;
22632;SDS011;11483;55.828;37.488;2022-09-20T16:42:03;15.02;;;6.78;;
22632;SDS011;11483;55.828;37.488;2022-09-20T16:44:30;13.13;;;3.15;;
22632;SDS011;11483;55.828;37.488;2022-09-20T16:46:57;10.25;;;3.63;;
22632;SDS011;11483;55.828;37.488;2022-09-20T16:49:23;8.98;;;3.65;;
22632;SDS011;11483;55.828;37.488;2022-09-20T16:51:52;9.50;;;3.90;;
22632;SDS011;11483;55.828;37.488;2022-09-20T16:54:19;10.18;;;3.80;;
22632;SDS011;11483;55.828;37.488;2022-09-20T16:56:46;8.45;;;4.07;;
22632;SDS011;11483;55.828;37.488;2022-09-20T16:59:14;5.50;;;3.00;;
22632;SDS011;11483;55.828;37.488;2022-09-20T17:01:42;9.45;;;3.63;;
22632;SDS011;11483;55.828;37.488;2022-09-20T17:04:09;8.02;;;3.55;;
22632;SDS011;11483;55.828;37.488;2022-09-20T17:06:41;7.60;;;3.85;;
22632;SDS011;11483;55.828;37.488;2022-09-20T17:09:10;10.05;;;3.67;;
22632;SDS011;11483;55.828;37.488;2022-09-20T17:11:41;10.93;;;4.10;;
22632;SDS011;11483;55.828;37.488;2022-09-20T17:14:11;9.65;;;4.00;;
22632;SDS011;11483;55.828;37.488;2022-09-20T17:16:39;12.32;;;4.07;;
22632;SDS011;11483;55.828;37.488;2022-09-20T17:19:08;7.10;;;3.67;;
22632;SDS011;11483;55.828;37.488;2022-09-20T17:21:36;10.45;;;4.25;;
22632;SDS011;11483;55.828;37.488;2022-09-20T17:24:04;5.25;;;3.33;;
22632;SDS011;11483;55.828;37.488;2022-09-20T17:26:32;7.60;;;3.15;;
22632;SDS011;11483;55.828;37.488;2022-09-20T17:29:02;9.13;;;3.45;;
22632;SDS011;11483;55.828;37.488;2022-09-20T17:31:32;10.98;;;3.90;;
22632;SDS011;11483;55.828;37.488;2022-09-20T17:33:59;9.20;;;3.47;;
22632;SDS011;11483;55.828;37.488;2022-09-20T17:36:30;7.47;;;3.72;;
22632;SDS011;11483;55.828;37.488;2022-09-20T17:38:58;7.53;;;3.63;;
22632;SDS011;11483;55.828;37.488;2022-09-20T17:41:25;7.10;;;3.03;;
22632;SDS011;11483;55.828;37.488;2022-09-20T17:43:52;9.35;;;3.70;;
22632;SDS011;11483;55.828;37.488;2022-09-20T17:46:23;8.02;;;3.85;;
22632;SDS011;11483;55.828;37.488;2022-09-20T17:48:54;7.78;;;3.25;;
22632;SDS011;11483;55.828;37.488;2022-09-20T17:51:21;7.80;;;3.70;;
22632;SDS011;11483;55.828;37.488;2022-09-20T17:53:49;10.45;;;3.88;;
22632;SDS011;11483;55.828;37.488;2022-09-20T17:56:16;5.68;;;3.63;;
22632;SDS011;11483;55.828;37.488;2022-09-20T17:58:42;7.82;;;3.67;;
22632;SDS011;11483;55.828;37.488;2022-09-20T18:01:13;9.73;;;3.42;;
22632;SDS011;11483;55.828;37.488;2022-09-20T18:03:43;6.40;;;3.45;;
22632;SDS011;11483;55.828;37.488;2022-09-20T18:06:20;12.48;;;3.88;;
22632;SDS011;11483;55.828;37.488;2022-09-20T18:08:47;8.77;;;3.78;;
22632;SDS011;11483;55.828;37.488;2022-09-20T18:11:15;8.88;;;4.07;;
22632;SDS011;11483;55.828;37.488;2022-09-20T18:13:44;8.77;;;4.20;;
22632;SDS011;11483;55.828;37.488;2022-09-20T18:16:10;6.22;;;3.60;;
22632;SDS011;11483;55.828;37.488;2022-09-20T18:18:38;7.47;;;3.72;;
22632;SDS011;11483;55.828;37.488;2022-09-20T18:21:09;5.63;;;3.47;;
22632;SDS011;11483;55.828;37.488;2022-09-20T18:23:40;6.30;;;3.40;;
22632;SDS011;11483;55.828;37.488;2022-09-20T18:26:17;7.55;;;3.85;;
22632;SDS011;11483;55.828;37.488;2022-09-20T18:28:53;6.28;;;3.42;;
22632;SDS011;11483;55.828;37.488;2022-09-20T18:31:28;7.78;;;4.00;;
22632;SDS011;11483;55.828;37.488;2022-09-20T18:34:03;8.00;;;3.95;;
22632;SDS011;11483;55.828;37.488;2022-09-20T18:36:36;7.15;;;3.83;;
22632;SDS011;11483;55.828;37.488;2022-09-20T18:39:04;8.25;;;3.88;;
22632;SDS011;11483;55.828;37.488;2022-09-20T18:41:31;9.57;;;3.95;;
22632;SDS011;11483;55.828;37.488;2022-09-20T18:44:00;5.68;;;3.83;;
22632;SDS011;11483;55.828;37.488;2022-09-20T18:46:28;12.88;;;4.35;;
22632;SDS011;11483;55.828;37.488;2022-09-20T18:48:58;9.52;;;3.75;;
22632;SDS011;11483;55.828;37.488;2022-09-20T18:51:28;8.82;;;4.35;;
22632;SDS011;11483;55.828;37.488;2022-09-20T18:53:55;9.85;;;4.05;;
22632;SDS011;11483;55.828;37.488;2022-09-20T18:56:25;9.32;;;4.28;;
22632;SDS011;11483;55.828;37.488;2022-09-20T18:58:54;10.88;;;4.20;;
22632;SDS011;11483;55.828;37.488;2022-09-20T19:12:49;10.45;;;4.20;;
22632;SDS011;11483;55.828;37.488;2022-09-20T19:18:53;9.30;;;4.13;;
22632;SDS011;11483;55.828;37.488;2022-09-20T19:21:51;10.77;;;4.30;;
22632;SDS011;11483;55.828;37.488;2022-09-20T19:27:25;7.75;;;3.95;;
22632;SDS011;11483;55.828;37.488;2022-09-20T19:29:52;5.82;;;3.50;;
22632;SDS011;11483;55.828;37.488;2022-09-20T19:32:18;7.57;;;4.00;;
22632;SDS011;11483;55.828;37.488;2022-09-20T19:34:52;10.63;;;4.22;;
22632;SDS011;11483;55.828;37.488;2022-09-20T19:50:36;8.45;;;3.70;;
22632;SDS011;11483;55.828;37.488;2022-09-20T19:53:09;12.27;;;4.07;;
22632;SDS011;11483;55.828;37.488;2022-09-20T19:55:37;11.48;;;3.70;;
22632;SDS011;11483;55.828;37.488;2022-09-20T19:58:03;7.10;;;3.78;;
22632;SDS011;11483;55.828;37.488;2022-09-20T20:00:30;7.93;;;4.07;;
22632;SDS011;11483;55.828;37.488;2022-09-20T20:02:56;10.23;;;4.07;;
22632;SDS011;11483;55.828;37.488;2022-09-20T20:05:23;6.40;;;4.10;;
22632;SDS011;11483;55.828;37.488;2022-09-20T20:16:38;6.63;;;3.40;;
22632;SDS011;11483;55.828;37.488;2022-09-20T20:19:23;7.47;;;4.30;;
22632;SDS011;11483;55.828;37.488;2022-09-20T20:22:11;6.47;;;3.65;;
22632;SDS011;11483;55.828;37.488;2022-09-20T20:24:55;7.20;;;3.10;;
22632;SDS011;11483;55.828;37.488;2022-09-20T20:27:22;5.03;;;3.10;;
22632;SDS011;11483;55.828;37.488;2022-09-20T20:29:49;8.77;;;3.88;;
22632;SDS011;11483;55.828;37.488;2022-09-20T20:32:16;7.10;;;4.35;;
22632;SDS011;11483;55.828;37.488;2022-09-20T20:34:42;6.57;;;3.67;;
22632;SDS011;11483;55.828;37.488;2022-09-20T20:37:08;7.78;;;5.13;;
22632;SDS011;11483;55.828;37.488;2022-09-20T20:39:34;7.05;;;4.45;;
22632;SDS011;11483;55.828;37.488;2022-09-20T20:42:00;12.98;;;5.13;;
22632;SDS011;11483;55.828;37.488;2022-09-20T20:44:27;8.18;;;4.63;;
22632;SDS011;11483;55.828;37.488;2022-09-20T20:47:01;8.40;;;4.35;;
22632;SDS011;11483;55.828;37.488;2022-09-20T20:49:28;10.18;;;4.57;;
22632;SDS011;11483;55.828;37.488;2022-09-20T20:51:55;10.90;;;4.40;;
22632;SDS011;11483;55.828;37.488;2022-09-20T20:54:22;7.57;;;4.22;;
22632;SDS011;11483;55.828;37.488;2022-09-20T20:56:48;9.57;;;4.45;;
22632;SDS011;11483;55.828;37.488;2022-09-20T20:59:14;9.68;;;5.03;;
22632;SDS011;11483;55.828;37.488;2022-09-20T21:01:42;11.32;;;5.80;;
22632;SDS011;11483;55.828;37.488;2022-09-20T21:04:11;13.50;;;5.88;;
22632;SDS011;11483;55.828;37.488;2022-09-20T21:06:38;9.40;;;5.78;;
22632;SDS011;11483;55.828;37.488;2022-09-20T21:09:05;11.48;;;6.43;;
22632;SDS011;11483;55.828;37.488;2022-09-20T21:11:35;12.05;;;6.28;;
22632;SDS011;11483;55.828;37.488;2022-09-20T21:14:03;12.55;;;5.93;;
22632;SDS011;11483;55.828;37.488;2022-09-20T21:16:34;10.40;;;5.40;;
22632;SDS011;11483;55.828;37.488;2022-09-20T21:19:03;9.05;;;4.97;;
22632;SDS011;11483;55.828;37.488;2022-09-20T21:21:31;12.18;;;5.95;;
22632;SDS011;11483;55.828;37.488;2022-09-20T21:24:00;12.27;;;6.72;;
22632;SDS011;11483;55.828;37.488;2022-09-20T21:26:27;12.40;;;6.07;;
22632;SDS011;11483;55.828;37.488;2022-09-20T21:28:57;12.10;;;5.20;;
22632;SDS011;11483;55.828;37.488;2022-09-20T21:31:43;9.45;;;5.30;;
22632;SDS011;11483;55.828;37.488;2022-09-20T21:34:11;8.73;;;4.45;;
22632;SDS011;11483;55.828;37.488;2022-09-20T21:36:39;17.10;;;8.02;;
22632;SDS011;11483;55.828;37.488;2022-09-20T21:39:05;10.35;;;5.82;;
22632;SDS011;11483;55.828;37.488;2022-09-20T21:41:33;18.67;;;4.95;;
22632;SDS011;11483;55.828;37.488;2022-09-20T21:44:04;10.48;;;4.75;;
22632;SDS011;11483;55.828;37.488;2022-09-20T21:46:31;15.52;;;5.07;;
22632;SDS011;11483;55.828;37.488;2022-09-20T21:49:00;7.80;;;4.40;;
22632;SDS011;11483;55.828;37.488;2022-09-20T21:51:30;7.15;;;4.57;;
22632;SDS011;11483;55.828;37.488;2022-09-20T21:53:57;7.25;;;4.47;;
22632;SDS011;11483;55.828;37.488;2022-09-20T21:56:26;8.60;;;4.30;;
22632;SDS011;11483;55.828;37.488;2022-09-20T21:58:59;9.48;;;4.85;;
22632;SDS011;11483;55.828;37.488;2022-09-20T22:01:29;9.30;;;5.07;;
22632;SDS011;11483;55.828;37.488;2022-09-20T22:03:59;8.88;;;5.10;;
22632;SDS011;11483;55.828;37.488;2022-09-20T22:06:32;8.95;;;4.38;;
22632;SDS011;11483;55.828;37.488;2022-09-20T22:09:07;16.75;;;5.03;;
22632;SDS011;11483;55.828;37.488;2022-09-20T22:11:36;17.17;;;5.68;;
22632;SDS011;11483;55.828;37.488;2022-09-20T22:14:04;10.07;;;5.25;;
22632;SDS011;11483;55.828;37.488;2022-09-20T22:16:31;11.95;;;4.70;;
22632;SDS011;11483;55.828;37.488;2022-09-20T22:18:59;12.98;;;4.10;;
22632;SDS011;11483;55.828;37.488;2022-09-20T22:23:59;11.43;;;5.25;;
22632;SDS011;11483;55.828;37.488;2022-09-20T22:26:28;8.50;;;4.70;;
22632;SDS011;11483;55.828;37.488;2022-09-20T22:28:58;9.27;;;4.75;;
22632;SDS011;11483;55.828;37.488;2022-09-20T22:31:25;8.40;;;5.25;;
22632;SDS011;11483;55.828;37.488;2022-09-20T22:33:53;16.90;;;5.20;;
22632;SDS011;11483;55.828;37.488;2022-09-20T22:36:22;7.50;;;4.20;;
22632;SDS011;11483;55.828;37.488;2022-09-20T22:38:49;9.68;;;4.72;;
22632;SDS011;11483;55.828;37.488;2022-09-20T22:41:16;13.70;;;4.57;;
22632;SDS011;11483;55.828;37.488;2022-09-20T22:43:43;12.45;;;4.72;;
22632;SDS011;11483;55.828;37.488;2022-09-20T22:46:10;8.52;;;4.47;;
22632;SDS011;11483;55.828;37.488;2022-09-20T22:48:41;8.57;;;4.70;;
22632;SDS011;11483;55.828;37.488;2022-09-20T22:51:08;9.40;;;4.55;;
22632;SDS011;11483;55.828;37.488;2022-09-20T22:53:36;13.02;;;4.85;;
22632;SDS011;11483;55.828;37.488;2022-09-20T22:56:09;7.57;;;4.85;;
22632;SDS011;11483;55.828;37.488;2022-09-20T22:58:37;12.45;;;4.40;;
22632;SDS011;11483;55.828;37.488;2022-09-20T23:01:06;15.35;;;7.35;;
22632;SDS011;11483;55.828;37.488;2022-09-20T23:03:34;11.60;;;4.97;;
22632;SDS011;11483;55.828;37.488;2022-09-20T23:06:01;14.98;;;7.72;;
22632;SDS011;11483;55.828;37.488;2022-09-20T23:08:28;11.38;;;5.53;;
22632;SDS011;11483;55.828;37.488;2022-09-20T23:11:03;17.55;;;10.13;;
22632;SDS011;11483;55.828;37.488;2022-09-20T23:13:29;30.10;;;13.85;;
22632;SDS011;11483;55.828;37.488;2022-09-20T23:15:55;14.48;;;6.28;;
22632;SDS011;11483;55.828;37.488;2022-09-20T23:18:22;12.93;;;4.68;;
22632;SDS011;11483;55.828;37.488;2022-09-20T23:20:56;12.15;;;5.20;;
22632;SDS011;11483;55.828;37.488;2022-09-20T23:23:25;9.02;;;4.85;;
22632;SDS011;11483;55.828;37.488;2022-09-20T23:25:52;11.57;;;4.55;;
22632;SDS011;11483;55.828;37.488;2022-09-20T23:28:20;12.40;;;5.13;;
22632;SDS011;11483;55.828;37.488;2022-09-20T23:30:46;11.70;;;5.15;;
22632;SDS011;11483;55.828;37.488;2022-09-20T23:33:12;11.73;;;5.13;;
22632;SDS011;11483;55.828;37.488;2022-09-20T23:35:42;12.60;;;5.00;;
22632;SDS011;11483;55.828;37.488;2022-09-20T23:38:09;12.27;;;5.00;;
22632;SDS011;11483;55.828;37.488;2022-09-20T23:40:35;8.93;;;4.68;;
22632;SDS011;11483;55.828;37.488;2022-09-20T23:45:27;12.95;;;4.45;;
22632;SDS011;11483;55.828;37.488;2022-09-20T23:47:53;16.30;;;5.60;;
22632;SDS011;11483;55.828;37.488;2022-09-20T23:50:18;7.32;;;4.57;;
22632;SDS011;11483;55.828;37.488;2022-09-20T23:52:44;8.48;;;4.13;;
22632;SDS011;11483;55.828;37.488;2022-09-20T23:55:36;12.60;;;4.75;;
22632;SDS011;11483;55.828;37.488;2022-09-20T23:58:02;8.13;;;4.60;;
